sensor_id;sensor_type;location;lat;lon;timestamp;pressure;altitude;pressure_sealevel;temperature;humidity
54924;BME280;40825;52.270;20.984;2022-10-31T00:01:16;100941.41;;;9.67;86.44
54924;BME280;40825;52.270;20.984;2022-10-31T00:03:47;100941.08;;;9.66;86.52
54924;BME280;40825;52.270;20.984;2022-10-31T00:06:13;100929.58;;;9.66;86.53
54924;BME280;40825;52.270;20.984;2022-10-31T00:08:40;100932.41;;;9.64;86.55
54924;BME280;40825;52.270;20.984;2022-10-31T00:11:10;100933.60;;;9.61;86.63
54924;BME280;40825;52.270;20.984;2022-10-31T00:13:36;100935.58;;;9.59;86.67
54924;BME280;40825;52.270;20.984;2022-10-31T00:16:02;100932.59;;;9.58;86.78
54924;BME280;40825;52.270;20.984;2022-10-31T00:18:28;100933.11;;;9.58;86.82
54924;BME280;40825;52.270;20.984;2022-10-31T00:21:02;100930.12;;;9.57;86.83
54924;BME280;40825;52.270;20.984;2022-10-31T00:23:29;100938.27;;;9.55;86.87
54924;BME280;40825;52.270;20.984;2022-10-31T00:26:03;100935.12;;;9.52;86.90
54924;BME280;40825;52.270;20.984;2022-10-31T00:28:30;100940.28;;;9.49;86.95
54924;BME280;40825;52.270;20.984;2022-10-31T00:31:06;100935.11;;;9.47;87.00
54924;BME280;40825;52.270;20.984;2022-10-31T00:33:37;100934.63;;;9.48;87.03
54924;BME280;40825;52.270;20.984;2022-10-31T00:36:05;100939.30;;;9.46;87.10
54924;BME280;40825;52.270;20.984;2022-10-31T00:38:32;100944.63;;;9.46;87.16
54924;BME280;40825;52.270;20.984;2022-10-31T00:40:58;100939.14;;;9.43;87.14
54924;BME280;40825;52.270;20.984;2022-10-31T00:43:24;100944.30;;;9.41;87.19
54924;BME280;40825;52.270;20.984;2022-10-31T00:45:50;100942.64;;;9.40;87.24
54924;BME280;40825;52.270;20.984;2022-10-31T00:48:16;100936.33;;;9.37;87.31
54924;BME280;40825;52.270;20.984;2022-10-31T00:50:43;100942.14;;;9.36;87.32
54924;BME280;40825;52.270;20.984;2022-10-31T00:53:09;100947.15;;;9.35;87.32
54924;BME280;40825;52.270;20.984;2022-10-31T00:55:34;100948.64;;;9.33;87.38
54924;BME280;40825;52.270;20.984;2022-10-31T00:58:00;100948.31;;;9.32;87.36
54924;BME280;40825;52.270;20.984;2022-10-31T01:00:27;100947.66;;;9.30;87.44
54924;BME280;40825;52.270;20.984;2022-10-31T01:02:54;100954.31;;;9.26;87.49
54924;BME280;40825;52.270;20.984;2022-10-31T01:05:20;100950.66;;;9.23;87.55
54924;BME280;40825;52.270;20.984;2022-10-31T01:07:46;100951.66;;;9.22;87.58
54924;BME280;40825;52.270;20.984;2022-10-31T01:10:12;100953.48;;;9.21;87.61
54924;BME280;40825;52.270;20.984;2022-10-31T01:12:43;100947.02;;;9.20;87.64
54924;BME280;40825;52.270;20.984;2022-10-31T01:15:13;100951.66;;;9.18;87.67
54924;BME280;40825;52.270;20.984;2022-10-31T01:17:40;100942.33;;;9.18;87.71
54924;BME280;40825;52.270;20.984;2022-10-31T01:20:08;100948.82;;;9.15;87.72
54924;BME280;40825;52.270;20.984;2022-10-31T01:22:34;100949.69;;;9.12;87.74
54924;BME280;40825;52.270;20.984;2022-10-31T01:25:01;100947.66;;;9.10;87.79
54924;BME280;40825;52.270;20.984;2022-10-31T01:27:28;100950.84;;;9.09;87.80
54924;BME280;40825;52.270;20.984;2022-10-31T01:29:54;100952.01;;;9.06;87.83
54924;BME280;40825;52.270;20.984;2022-10-31T01:32:20;100955.17;;;9.02;87.89
54924;BME280;40825;52.270;20.984;2022-10-31T01:34:46;100959.00;;;8.99;87.95
54924;BME280;40825;52.270;20.984;2022-10-31T01:37:12;100963.15;;;8.98;88.00
54924;BME280;40825;52.270;20.984;2022-10-31T01:39:38;100957.32;;;8.94;88.01
54924;BME280;40825;52.270;20.984;2022-10-31T01:42:04;100960.66;;;8.92;88.02
54924;BME280;40825;52.270;20.984;2022-10-31T01:47:14;100965.48;;;8.88;88.12
54924;BME280;40825;52.270;20.984;2022-10-31T01:49:46;100960.31;;;8.87;88.16
54924;BME280;40825;52.270;20.984;2022-10-31T01:52:30;100961.98;;;8.84;88.18
54924;BME280;40825;52.270;20.984;2022-10-31T01:55:22;100967.98;;;8.82;88.23
54924;BME280;40825;52.270;20.984;2022-10-31T01:57:55;100958.97;;;8.78;88.26
54924;BME280;40825;52.270;20.984;2022-10-31T02:00:24;100961.49;;;8.76;88.30
54924;BME280;40825;52.270;20.984;2022-10-31T02:02:51;100958.98;;;8.74;88.34
54924;BME280;40825;52.270;20.984;2022-10-31T02:05:21;100965.47;;;8.72;88.37
54924;BME280;40825;52.270;20.984;2022-10-31T02:10:23;100957.98;;;8.67;88.43
54924;BME280;40825;52.270;20.984;2022-10-31T02:12:54;100958.98;;;8.66;88.49
54924;BME280;40825;52.270;20.984;2022-10-31T02:15:22;100958.13;;;8.65;88.50
54924;BME280;40825;52.270;20.984;2022-10-31T02:17:48;100954.33;;;8.64;88.52
54924;BME280;40825;52.270;20.984;2022-10-31T02:20:20;100947.34;;;8.63;88.58
54924;BME280;40825;52.270;20.984;2022-10-31T02:29:16;100958.13;;;8.57;88.72
54924;BME280;40825;52.270;20.984;2022-10-31T02:37:31;100948.28;;;8.49;88.90
54924;BME280;40825;52.270;20.984;2022-10-31T02:40:07;100954.41;;;8.50;88.97
54924;BME280;40825;52.270;20.984;2022-10-31T02:42:42;100958.08;;;8.49;89.08
54924;BME280;40825;52.270;20.984;2022-10-31T02:45:20;100951.61;;;8.47;89.01
54924;BME280;40825;52.270;20.984;2022-10-31T02:48:08;100960.23;;;8.45;89.07
54924;BME280;40825;52.270;20.984;2022-10-31T02:50:38;100962.56;;;8.44;89.10
54924;BME280;40825;52.270;20.984;2022-10-31T02:53:06;100956.91;;;8.43;89.13
54924;BME280;40825;52.270;20.984;2022-10-31T02:58:15;100966.22;;;8.43;89.28
54924;BME280;40825;52.270;20.984;2022-10-31T03:06:35;100972.05;;;8.43;89.43
54924;BME280;40825;52.270;20.984;2022-10-31T03:09:44;100975.20;;;8.42;89.49
54924;BME280;40825;52.270;20.984;2022-10-31T03:15:28;100974.02;;;8.40;89.48
54924;BME280;40825;52.270;20.984;2022-10-31T03:20:58;100987.51;;;8.39;89.53
54924;BME280;40825;52.270;20.984;2022-10-31T03:23:38;100986.17;;;8.39;89.58
54924;BME280;40825;52.270;20.984;2022-10-31T03:26:06;100984.52;;;8.38;89.53
54924;BME280;40825;52.270;20.984;2022-10-31T03:28:41;100990.47;;;8.36;89.59
54924;BME280;40825;52.270;20.984;2022-10-31T03:31:06;100988.66;;;8.36;89.62
54924;BME280;40825;52.270;20.984;2022-10-31T03:33:34;100996.64;;;8.36;89.60
54924;BME280;40825;52.270;20.984;2022-10-31T03:36:02;100994.47;;;8.32;89.70
54924;BME280;40825;52.270;20.984;2022-10-31T03:38:31;100998.28;;;8.29;89.84
54924;BME280;40825;52.270;20.984;2022-10-31T03:41:01;100998.61;;;8.26;89.66
54924;BME280;40825;52.270;20.984;2022-10-31T03:43:32;100996.09;;;8.24;89.61
54924;BME280;40825;52.270;20.984;2022-10-31T03:46:00;100997.73;;;8.21;89.69
54924;BME280;40825;52.270;20.984;2022-10-31T03:48:26;101002.23;;;8.21;89.68
54924;BME280;40825;52.270;20.984;2022-10-31T03:53:36;101005.38;;;8.20;89.79
54924;BME280;40825;52.270;20.984;2022-10-31T03:56:07;101009.37;;;8.20;89.80
54924;BME280;40825;52.270;20.984;2022-10-31T03:59:00;101012.36;;;8.21;89.92
54924;BME280;40825;52.270;20.984;2022-10-31T04:01:26;101013.54;;;8.23;90.00
54924;BME280;40825;52.270;20.984;2022-10-31T04:03:55;101011.73;;;8.23;90.00
54924;BME280;40825;52.270;20.984;2022-10-31T04:06:24;101003.89;;;8.22;90.09
54924;BME280;40825;52.270;20.984;2022-10-31T04:08:54;101010.39;;;8.23;90.12
54924;BME280;40825;52.270;20.984;2022-10-31T04:11:25;101011.22;;;8.24;90.10
54924;BME280;40825;52.270;20.984;2022-10-31T04:13:54;101014.05;;;8.22;90.13
54924;BME280;40825;52.270;20.984;2022-10-31T04:16:23;101012.21;;;8.23;90.16
54924;BME280;40825;52.270;20.984;2022-10-31T04:18:51;101014.69;;;8.20;90.15
54924;BME280;40825;52.270;20.984;2022-10-31T04:21:17;101007.38;;;8.18;90.20
54924;BME280;40825;52.270;20.984;2022-10-31T04:23:43;101006.70;;;8.16;90.19
54924;BME280;40825;52.270;20.984;2022-10-31T04:26:12;101012.51;;;8.16;90.21
54924;BME280;40825;52.270;20.984;2022-10-31T04:28:39;101011.36;;;8.14;90.26
54924;BME280;40825;52.270;20.984;2022-10-31T04:31:05;101009.34;;;8.12;90.27
54924;BME280;40825;52.270;20.984;2022-10-31T04:33:31;101006.86;;;8.10;90.33
54924;BME280;40825;52.270;20.984;2022-10-31T04:35:57;101015.65;;;8.11;90.36
54924;BME280;40825;52.270;20.984;2022-10-31T04:38:23;101008.00;;;8.08;90.38
54924;BME280;40825;52.270;20.984;2022-10-31T04:40:49;101016.46;;;8.07;90.41
54924;BME280;40825;52.270;20.984;2022-10-31T04:43:15;101007.97;;;8.04;90.41
54924;BME280;40825;52.270;20.984;2022-10-31T04:45:41;101009.15;;;8.05;90.40
54924;BME280;40825;52.270;20.984;2022-10-31T04:48:07;101016.94;;;8.03;90.43
54924;BME280;40825;52.270;20.984;2022-10-31T04:50:33;101016.61;;;8.02;90.43
54924;BME280;40825;52.270;20.984;2022-10-31T04:52:59;101023.92;;;8.00;90.46
54924;BME280;40825;52.270;20.984;2022-10-31T04:55:25;101016.94;;;7.98;90.51
54924;BME280;40825;52.270;20.984;2022-10-31T04:57:50;101018.75;;;7.98;90.53
54924;BME280;40825;52.270;20.984;2022-10-31T05:00:19;101017.94;;;7.97;90.53
54924;BME280;40825;52.270;20.984;2022-10-31T05:02:52;101019.41;;;7.96;90.54
54924;BME280;40825;52.270;20.984;2022-10-31T05:05:25;101030.53;;;7.95;90.58
54924;BME280;40825;52.270;20.984;2022-10-31T05:07:55;101028.38;;;7.95;90.55
54924;BME280;40825;52.270;20.984;2022-10-31T05:10:24;101021.04;;;7.93;90.71
54924;BME280;40825;52.270;20.984;2022-10-31T05:12:53;101027.20;;;7.93;90.67
54924;BME280;40825;52.270;20.984;2022-10-31T05:15:23;101029.52;;;7.92;90.72
54924;BME280;40825;52.270;20.984;2022-10-31T05:17:51;101031.19;;;7.93;90.72
54924;BME280;40825;52.270;20.984;2022-10-31T05:20:20;101029.86;;;7.93;90.72
54924;BME280;40825;52.270;20.984;2022-10-31T05:22:49;101031.85;;;7.91;90.73
54924;BME280;40825;52.270;20.984;2022-10-31T05:25:18;101033.48;;;7.88;90.75
54924;BME280;40825;52.270;20.984;2022-10-31T05:27:47;101031.81;;;7.87;90.79
54924;BME280;40825;52.270;20.984;2022-10-31T05:30:18;101031.81;;;7.87;90.85
54924;BME280;40825;52.270;20.984;2022-10-31T05:32:47;101033.48;;;7.88;90.84
54924;BME280;40825;52.270;20.984;2022-10-31T05:35:22;101033.66;;;7.87;90.96
54924;BME280;40825;52.270;20.984;2022-10-31T05:37:47;101038.13;;;7.86;90.97
54924;BME280;40825;52.270;20.984;2022-10-31T05:40:15;101034.98;;;7.87;90.99
54924;BME280;40825;52.270;20.984;2022-10-31T05:42:42;101031.33;;;7.88;91.00
54924;BME280;40825;52.270;20.984;2022-10-31T05:45:12;101038.80;;;7.88;90.95
54924;BME280;40825;52.270;20.984;2022-10-31T05:47:40;101043.30;;;7.88;90.96
54924;BME280;40825;52.270;20.984;2022-10-31T05:50:08;101049.09;;;7.87;91.00
54924;BME280;40825;52.270;20.984;2022-10-31T05:52:35;101049.28;;;7.90;91.05
54924;BME280;40825;52.270;20.984;2022-10-31T05:55:02;101047.80;;;7.91;91.02
54924;BME280;40825;52.270;20.984;2022-10-31T05:57:29;101039.16;;;7.93;91.03
54924;BME280;40825;52.270;20.984;2022-10-31T05:59:55;101046.99;;;7.95;91.06
54924;BME280;40825;52.270;20.984;2022-10-31T06:02:21;101043.53;;;7.98;91.04
54924;BME280;40825;52.270;20.984;2022-10-31T06:04:47;101039.83;;;7.95;91.08
54924;BME280;40825;52.270;20.984;2022-10-31T06:07:13;101044.53;;;8.02;91.14
54924;BME280;40825;52.270;20.984;2022-10-31T06:09:39;101043.86;;;8.04;91.03
54924;BME280;40825;52.270;20.984;2022-10-31T06:12:05;101045.20;;;8.04;91.02
54924;BME280;40825;52.270;20.984;2022-10-31T06:14:31;101050.03;;;8.04;91.07
54924;BME280;40825;52.270;20.984;2022-10-31T06:16:57;101054.88;;;8.09;91.12
54924;BME280;40825;52.270;20.984;2022-10-31T06:19:23;101061.19;;;8.12;91.08
54924;BME280;40825;52.270;20.984;2022-10-31T06:21:49;101064.03;;;8.15;91.05
54924;BME280;40825;52.270;20.984;2022-10-31T06:24:15;101054.91;;;8.21;91.07
54924;BME280;40825;52.270;20.984;2022-10-31T06:26:41;101060.79;;;8.29;91.09
54924;BME280;40825;52.270;20.984;2022-10-31T06:29:09;101058.70;;;8.49;91.03
54924;BME280;40825;52.270;20.984;2022-10-31T06:31:35;101058.66;;;8.76;90.88
54924;BME280;40825;52.270;20.984;2022-10-31T06:34:01;101056.55;;;9.04;90.88
54924;BME280;40825;52.270;20.984;2022-10-31T06:36:27;101062.40;;;9.25;90.89
54924;BME280;40825;52.270;20.984;2022-10-31T06:38:53;101056.88;;;9.34;91.05
54924;BME280;40825;52.270;20.984;2022-10-31T06:41:19;101067.23;;;9.38;90.98
54924;BME280;40825;52.270;20.984;2022-10-31T06:43:48;101060.87;;;9.43;91.05
54924;BME280;40825;52.270;20.984;2022-10-31T06:46:14;101064.39;;;9.52;91.05
54924;BME280;40825;52.270;20.984;2022-10-31T06:48:41;101065.88;;;9.58;90.99
54924;BME280;40825;52.270;20.984;2022-10-31T06:51:07;101061.89;;;9.62;90.97
54924;BME280;40825;52.270;20.984;2022-10-31T06:53:33;101061.03;;;9.70;91.01
54924;BME280;40825;52.270;20.984;2022-10-31T06:55:59;101061.02;;;9.79;90.86
54924;BME280;40825;52.270;20.984;2022-10-31T06:58:25;101061.68;;;9.85;90.82
54924;BME280;40825;52.270;20.984;2022-10-31T07:00:53;101061.17;;;9.89;90.71
54924;BME280;40825;52.270;20.984;2022-10-31T07:03:19;101067.65;;;9.95;90.73
54924;BME280;40825;52.270;20.984;2022-10-31T07:05:46;101065.48;;;10.03;90.50
54924;BME280;40825;52.270;20.984;2022-10-31T07:08:13;101070.13;;;10.05;90.43
54924;BME280;40825;52.270;20.984;2022-10-31T07:10:41;101068.45;;;10.08;90.46
54924;BME280;40825;52.270;20.984;2022-10-31T07:13:13;101068.78;;;10.13;90.36
54924;BME280;40825;52.270;20.984;2022-10-31T07:15:41;101072.42;;;10.16;89.94
54924;BME280;40825;52.270;20.984;2022-10-31T07:18:10;101071.58;;;10.20;90.23
54924;BME280;40825;52.270;20.984;2022-10-31T07:20:37;101075.06;;;10.25;89.87
54924;BME280;40825;52.270;20.984;2022-10-31T07:23:03;101073.89;;;10.31;89.82
54924;BME280;40825;52.270;20.984;2022-10-31T07:25:29;101069.37;;;10.44;89.73
54924;BME280;40825;52.270;20.984;2022-10-31T07:27:56;101066.34;;;10.52;89.34
54924;BME280;40825;52.270;20.984;2022-10-31T07:30:21;101074.80;;;10.64;89.55
54924;BME280;40825;52.270;20.984;2022-10-31T07:32:49;101069.58;;;10.70;89.28
54924;BME280;40825;52.270;20.984;2022-10-31T07:35:18;101078.23;;;10.77;89.27
54924;BME280;40825;52.270;20.984;2022-10-31T07:37:47;101081.91;;;10.71;88.61
54924;BME280;40825;52.270;20.984;2022-10-31T07:40:14;101080.63;;;10.63;88.41
54924;BME280;40825;52.270;20.984;2022-10-31T07:42:44;101083.45;;;10.66;88.97
54924;BME280;40825;52.270;20.984;2022-10-31T07:45:13;101084.22;;;10.79;89.04
54924;BME280;40825;52.270;20.984;2022-10-31T07:47:44;101083.80;;;10.94;88.96
54924;BME280;40825;52.270;20.984;2022-10-31T07:50:13;101079.53;;;11.08;88.76
54924;BME280;40825;52.270;20.984;2022-10-31T07:52:41;101087.27;;;11.22;88.48
54924;BME280;40825;52.270;20.984;2022-10-31T07:55:07;101084.28;;;11.21;87.51
54924;BME280;40825;52.270;20.984;2022-10-31T07:57:34;101087.64;;;11.19;88.04
54924;BME280;40825;52.270;20.984;2022-10-31T08:00:00;101096.83;;;11.21;87.08
54924;BME280;40825;52.270;20.984;2022-10-31T08:02:26;101091.48;;;11.21;87.07
54924;BME280;40825;52.270;20.984;2022-10-31T08:04:52;101093.80;;;11.20;87.28
54924;BME280;40825;52.270;20.984;2022-10-31T08:07:18;101086.89;;;11.30;87.50
54924;BME280;40825;52.270;20.984;2022-10-31T08:09:44;101096.34;;;11.40;86.95
54924;BME280;40825;52.270;20.984;2022-10-31T08:12:10;101095.55;;;11.32;85.59
54924;BME280;40825;52.270;20.984;2022-10-31T08:14:36;101100.58;;;11.31;86.45
54924;BME280;40825;52.270;20.984;2022-10-31T08:17:02;101097.26;;;11.28;86.66
54924;BME280;40825;52.270;20.984;2022-10-31T08:19:28;101100.09;;;11.31;86.07
54924;BME280;40825;52.270;20.984;2022-10-31T08:21:54;101097.44;;;11.50;86.10
54924;BME280;40825;52.270;20.984;2022-10-31T08:24:21;101095.50;;;11.59;86.28
54924;BME280;40825;52.270;20.984;2022-10-31T08:26:48;101098.66;;;11.63;86.24
54924;BME280;40825;52.270;20.984;2022-10-31T08:29:14;101095.56;;;11.74;86.25
54924;BME280;40825;52.270;20.984;2022-10-31T08:31:41;101105.91;;;11.92;86.26
54924;BME280;40825;52.270;20.984;2022-10-31T08:34:07;101102.30;;;12.04;86.02
54924;BME280;40825;52.270;20.984;2022-10-31T08:36:34;101106.55;;;12.14;85.93
54924;BME280;40825;52.270;20.984;2022-10-31T08:39:01;101113.61;;;12.26;85.86
54924;BME280;40825;52.270;20.984;2022-10-31T08:41:27;101107.67;;;12.34;85.94
54924;BME280;40825;52.270;20.984;2022-10-31T08:43:53;101113.71;;;12.47;85.59
54924;BME280;40825;52.270;20.984;2022-10-31T08:46:19;101119.28;;;12.72;85.26
54924;BME280;40825;52.270;20.984;2022-10-31T08:48:49;101115.95;;;12.96;84.63
54924;BME280;40825;52.270;20.984;2022-10-31T08:51:15;101118.22;;;12.88;84.41
54924;BME280;40825;52.270;20.984;2022-10-31T08:53:41;101122.42;;;12.86;84.60
54924;BME280;40825;52.270;20.984;2022-10-31T08:56:07;101116.25;;;12.86;84.34
54924;BME280;40825;52.270;20.984;2022-10-31T08:58:33;101118.58;;;12.74;84.16
54924;BME280;40825;52.270;20.984;2022-10-31T09:01:00;101126.16;;;12.70;84.42
54924;BME280;40825;52.270;20.984;2022-10-31T09:03:29;101125.91;;;12.76;84.19
54924;BME280;40825;52.270;20.984;2022-10-31T09:06:01;101118.90;;;12.75;83.91
54924;BME280;40825;52.270;20.984;2022-10-31T09:08:32;101115.34;;;12.78;83.29
54924;BME280;40825;52.270;20.984;2022-10-31T09:10:58;101113.75;;;12.84;83.07
54924;BME280;40825;52.270;20.984;2022-10-31T09:13:25;101113.75;;;12.84;82.83
54924;BME280;40825;52.270;20.984;2022-10-31T09:15:52;101115.43;;;12.96;82.85
54924;BME280;40825;52.270;20.984;2022-10-31T09:18:22;101117.81;;;13.06;82.44
54924;BME280;40825;52.270;20.984;2022-10-31T09:20:49;101124.71;;;13.15;82.50
54924;BME280;40825;52.270;20.984;2022-10-31T09:23:18;101120.12;;;13.53;82.88
54924;BME280;40825;52.270;20.984;2022-10-31T09:25:47;101118.50;;;14.09;82.84
54924;BME280;40825;52.270;20.984;2022-10-31T09:28:17;101116.18;;;14.58;81.96
54924;BME280;40825;52.270;20.984;2022-10-31T09:30:50;101118.00;;;14.69;81.31
54924;BME280;40825;52.270;20.984;2022-10-31T09:33:18;101118.66;;;15.02;81.53
54924;BME280;40825;52.270;20.984;2022-10-31T09:35:44;101122.34;;;15.52;80.84
54924;BME280;40825;52.270;20.984;2022-10-31T09:38:12;101121.83;;;16.00;79.49
54924;BME280;40825;52.270;20.984;2022-10-31T09:40:54;101125.11;;;16.29;77.84
54924;BME280;40825;52.270;20.984;2022-10-31T09:43:46;101128.31;;;16.58;78.49
54924;BME280;40825;52.270;20.984;2022-10-31T09:46:58;101132.28;;;16.56;76.76
54924;BME280;40825;52.270;20.984;2022-10-31T09:52:20;101131.30;;;16.66;74.10
54924;BME280;40825;52.270;20.984;2022-10-31T09:54:53;101135.94;;;16.02;76.36
54924;BME280;40825;52.270;20.984;2022-10-31T09:57:28;101134.36;;;15.57;75.68
54924;BME280;40825;52.270;20.984;2022-10-31T09:59:54;101128.65;;;15.29;75.57
54924;BME280;40825;52.270;20.984;2022-10-31T10:05:04;101133.20;;;14.90;76.10
54924;BME280;40825;52.270;20.984;2022-10-31T10:10:59;101123.61;;;14.74;76.11
54924;BME280;40825;52.270;20.984;2022-10-31T10:16:15;101121.55;;;14.58;76.13
54924;BME280;40825;52.270;20.984;2022-10-31T10:21:42;101110.05;;;14.47;75.51
54924;BME280;40825;52.270;20.984;2022-10-31T10:30:11;101114.87;;;14.23;76.08
54924;BME280;40825;52.270;20.984;2022-10-31T10:32:31;101115.19;;;14.24;75.91
54924;BME280;40825;52.270;20.984;2022-10-31T10:35:02;101104.56;;;14.27;76.05
54924;BME280;40825;52.270;20.984;2022-10-31T10:37:40;101107.38;;;14.29;76.05
54924;BME280;40825;52.270;20.984;2022-10-31T10:40:17;101103.59;;;14.35;75.93
54924;BME280;40825;52.270;20.984;2022-10-31T10:43:12;101102.65;;;14.38;76.08
54924;BME280;40825;52.270;20.984;2022-10-31T10:45:50;101100.52;;;14.44;76.17
54924;BME280;40825;52.270;20.984;2022-10-31T10:48:46;101097.11;;;14.47;75.91
54924;BME280;40825;52.270;20.984;2022-10-31T10:51:23;101095.89;;;14.49;76.01
54924;BME280;40825;52.270;20.984;2022-10-31T10:59:37;101096.81;;;14.70;75.58
54924;BME280;40825;52.270;20.984;2022-10-31T11:02:25;101100.96;;;14.73;75.30
54924;BME280;40825;52.270;20.984;2022-10-31T11:04:47;101092.05;;;14.72;75.29
54924;BME280;40825;52.270;20.984;2022-10-31T11:07:14;101097.89;;;14.76;75.11
54924;BME280;40825;52.270;20.984;2022-10-31T11:09:42;101098.94;;;14.81;75.31
54924;BME280;40825;52.270;20.984;2022-10-31T11:12:11;101094.52;;;14.84;74.98
54924;BME280;40825;52.270;20.984;2022-10-31T11:14:55;101086.04;;;14.88;75.10
54924;BME280;40825;52.270;20.984;2022-10-31T11:23:16;101085.97;;;15.05;74.98
54924;BME280;40825;52.270;20.984;2022-10-31T11:25:53;101082.55;;;15.07;74.70
54924;BME280;40825;52.270;20.984;2022-10-31T11:28:28;101089.31;;;15.14;74.75
54924;BME280;40825;52.270;20.984;2022-10-31T11:30:57;101091.37;;;15.19;74.47
54924;BME280;40825;52.270;20.984;2022-10-31T11:33:32;101092.50;;;15.20;74.42
54924;BME280;40825;52.270;20.984;2022-10-31T11:36:16;101091.49;;;15.28;74.67
54924;BME280;40825;52.270;20.984;2022-10-31T11:38:50;101083.00;;;15.31;74.51
54924;BME280;40825;52.270;20.984;2022-10-31T11:41:28;101084.87;;;15.37;74.60
54924;BME280;40825;52.270;20.984;2022-10-31T11:44:01;101085.91;;;15.43;74.33
54924;BME280;40825;52.270;20.984;2022-10-31T11:46:35;101078.88;;;15.42;74.05
54924;BME280;40825;52.270;20.984;2022-10-31T11:52:14;101093.16;;;15.49;74.08
54924;BME280;40825;52.270;20.984;2022-10-31T11:54:54;101090.88;;;15.53;74.28
54924;BME280;40825;52.270;20.984;2022-10-31T11:57:43;101083.84;;;15.52;74.06
54924;BME280;40825;52.270;20.984;2022-10-31T12:03:26;101074.73;;;15.53;73.85
54924;BME280;40825;52.270;20.984;2022-10-31T12:06:07;101072.97;;;15.56;73.81
54924;BME280;40825;52.270;20.984;2022-10-31T12:08:37;101081.69;;;15.58;73.92
54924;BME280;40825;52.270;20.984;2022-10-31T12:16:57;101070.08;;;15.71;73.96
54924;BME280;40825;52.270;20.984;2022-10-31T12:25:28;101070.77;;;15.83;73.99
54924;BME280;40825;52.270;20.984;2022-10-31T12:37:26;101067.16;;;16.00;74.14
54924;BME280;40825;52.270;20.984;2022-10-31T12:40:15;101062.99;;;16.04;74.17
54924;BME280;40825;52.270;20.984;2022-10-31T12:45:56;101056.16;;;16.08;74.11
54924;BME280;40825;52.270;20.984;2022-10-31T12:48:36;101055.31;;;16.07;74.07
54924;BME280;40825;52.270;20.984;2022-10-31T12:54:12;101056.47;;;16.09;74.10
54924;BME280;40825;52.270;20.984;2022-10-31T12:57:35;101060.20;;;16.08;74.01
54924;BME280;40825;52.270;20.984;2022-10-31T12:59:51;101064.55;;;16.09;74.06
54924;BME280;40825;52.270;20.984;2022-10-31T13:02:29;101056.47;;;16.09;74.08
54924;BME280;40825;52.270;20.984;2022-10-31T13:05:16;101058.62;;;16.09;74.06
54924;BME280;40825;52.270;20.984;2022-10-31T13:08:04;101059.27;;;16.12;74.09
54924;BME280;40825;52.270;20.984;2022-10-31T13:10:51;101060.17;;;16.15;74.18
54924;BME280;40825;52.270;20.984;2022-10-31T13:13:31;101060.58;;;16.18;74.14
54924;BME280;40825;52.270;20.984;2022-10-31T13:16:22;101057.58;;;16.17;74.07
54924;BME280;40825;52.270;20.984;2022-10-31T13:23:58;101055.62;;;16.15;73.94
54924;BME280;40825;52.270;20.984;2022-10-31T13:26:45;101053.34;;;16.12;74.07
54924;BME280;40825;52.270;20.984;2022-10-31T13:29:38;101053.03;;;16.11;74.14
54924;BME280;40825;52.270;20.984;2022-10-31T13:32:09;101053.03;;;16.11;74.12
54924;BME280;40825;52.270;20.984;2022-10-31T13:34:44;101061.95;;;16.12;74.13
54924;BME280;40825;52.270;20.984;2022-10-31T13:40:32;101056.66;;;16.07;74.21
54924;BME280;40825;52.270;20.984;2022-10-31T13:43:28;101053.87;;;16.05;74.26
54924;BME280;40825;52.270;20.984;2022-10-31T13:45:56;101056.09;;;15.99;74.35
54924;BME280;40825;52.270;20.984;2022-10-31T13:51:05;101057.96;;;15.91;74.48
54924;BME280;40825;52.270;20.984;2022-10-31T13:56:18;101059.27;;;15.85;74.62
54924;BME280;40825;52.270;20.984;2022-10-31T13:59:21;101058.16;;;15.83;74.65
54924;BME280;40825;52.270;20.984;2022-10-31T14:01:50;101050.30;;;15.75;74.73
54924;BME280;40825;52.270;20.984;2022-10-31T14:04:36;101045.84;;;15.64;74.82
54924;BME280;40825;52.270;20.984;2022-10-31T14:07:15;101046.36;;;15.57;74.94
54924;BME280;40825;52.270;20.984;2022-10-31T14:15:18;101045.86;;;15.37;75.21
54924;BME280;40825;52.270;20.984;2022-10-31T14:17:55;101042.95;;;15.32;75.28
54924;BME280;40825;52.270;20.984;2022-10-31T14:28:55;101047.25;;;14.86;75.92
54924;BME280;40825;52.270;20.984;2022-10-31T14:31:37;101040.30;;;14.74;75.99
54924;BME280;40825;52.270;20.984;2022-10-31T14:46:22;101044.98;;;14.27;77.04
54924;BME280;40825;52.270;20.984;2022-10-31T14:49:17;101051.43;;;14.15;77.10
54924;BME280;40825;52.270;20.984;2022-10-31T14:52:01;101050.20;;;14.00;77.30
54924;BME280;40825;52.270;20.984;2022-10-31T14:54:33;101046.42;;;13.88;77.34
54924;BME280;40825;52.270;20.984;2022-10-31T14:57:07;101048.63;;;13.78;77.75
54924;BME280;40825;52.270;20.984;2022-10-31T14:59:37;101048.34;;;13.66;78.09
54924;BME280;40825;52.270;20.984;2022-10-31T15:03:18;101050.20;;;13.54;78.07
54924;BME280;40825;52.270;20.984;2022-10-31T15:05:07;101049.16;;;13.44;78.88
54924;BME280;40825;52.270;20.984;2022-10-31T15:07:34;101050.09;;;13.30;78.68
54924;BME280;40825;52.270;20.984;2022-10-31T15:10:18;101059.92;;;13.23;79.18
54924;BME280;40825;52.270;20.984;2022-10-31T15:12:34;101057.06;;;13.13;78.90
54924;BME280;40825;52.270;20.984;2022-10-31T15:15:18;101061.39;;;13.03;78.86
54924;BME280;40825;52.270;20.984;2022-10-31T15:17:54;101066.38;;;12.96;80.20
54924;BME280;40825;52.270;20.984;2022-10-31T15:20:26;101069.14;;;12.87;79.93
54924;BME280;40825;52.270;20.984;2022-10-31T15:22:56;101058.89;;;12.80;79.64
54924;BME280;40825;52.270;20.984;2022-10-31T15:25:24;101058.16;;;12.71;80.30